createdAt,value
2019-03-25T00:01:51.602Z,5.30
2019-03-25T00:04:22.654Z,5.20
2019-03-25T00:06:53.750Z,5.00
2019-03-25T00:09:25.891Z,4.90
2019-03-25T00:11:56.923Z,4.90
2019-03-25T00:14:28.019Z,5.00
2019-03-25T00:16:59.087Z,5.10
2019-03-25T00:19:30.147Z,5.10
2019-03-25T00:22:02.031Z,5.10
2019-03-25T00:24:38.594Z,5.10
2019-03-25T00:27:05.779Z,5.20
2019-03-25T00:29:36.866Z,5.30
2019-03-25T00:32:10.420Z,5.20
2019-03-25T00:34:41.454Z,5.30
2019-03-25T00:37:12.522Z,5.20
2019-03-25T00:39:43.595Z,5.20
2019-03-25T00:42:14.653Z,5.10
2019-03-25T00:44:45.757Z,5.10
2019-03-25T00:47:16.820Z,5.00
2019-03-25T00:49:47.899Z,5.00
2019-03-25T00:52:18.952Z,5.00
2019-03-25T00:54:50.462Z,5.00
2019-03-25T00:57:21.631Z,5.00
2019-03-25T00:59:52.700Z,5.00
2019-03-25T01:02:24.135Z,5.10
2019-03-25T01:04:55.309Z,5.10
2019-03-25T01:07:26.378Z,5.10
2019-03-25T01:09:57.539Z,5.20
2019-03-25T01:12:30.414Z,5.20
2019-03-25T01:15:02.755Z,5.20
2019-03-25T01:17:33.830Z,5.30
2019-03-25T01:20:05.247Z,5.30
2019-03-25T01:22:36.604Z,5.40
2019-03-25T01:25:08.003Z,5.40
2019-03-25T01:27:39.715Z,5.30
2019-03-25T01:30:11.944Z,5.30
2019-03-25T01:32:44.226Z,5.40
2019-03-25T01:35:15.292Z,5.50
2019-03-25T01:37:47.334Z,5.40
2019-03-25T01:40:20.270Z,5.40
2019-03-25T01:42:51.958Z,5.30
2019-03-25T01:45:23.128Z,5.20
2019-03-25T01:47:54.227Z,5.20
2019-03-25T01:50:25.286Z,5.20
2019-03-25T01:52:56.374Z,5.10
2019-03-25T01:55:27.617Z,5.10
2019-03-25T01:57:58.686Z,5.00
2019-03-25T02:00:29.970Z,5.10
2019-03-25T02:03:02.045Z,5.10
2019-03-25T02:05:33.519Z,5.20
2019-03-25T02:08:05.579Z,5.20
2019-03-25T02:10:40.626Z,5.30
2019-03-25T02:13:11.791Z,5.30
2019-03-25T02:15:43.164Z,5.20
2019-03-25T02:18:14.264Z,5.20
2019-03-25T02:20:46.952Z,5.10
2019-03-25T02:23:18.019Z,5.10
2019-03-25T02:25:49.125Z,5.00
2019-03-25T02:28:21.355Z,4.90
2019-03-25T02:30:54.609Z,5.00
2019-03-25T02:33:26.549Z,4.90
2019-03-25T02:35:58.910Z,4.90
2019-03-25T02:38:31.215Z,4.90
2019-03-25T02:41:02.287Z,4.90
2019-03-25T02:43:33.699Z,4.90
2019-03-25T02:46:04.847Z,5.00
2019-03-25T02:48:36.478Z,4.90
2019-03-25T02:51:07.497Z,4.80
2019-03-25T02:53:38.560Z,4.90
2019-03-25T02:56:09.627Z,4.90
2019-03-25T02:58:40.725Z,5.00
2019-03-25T03:01:11.766Z,5.00
2019-03-25T03:03:44.895Z,5.00
2019-03-25T03:06:16.553Z,5.10
2019-03-25T03:08:48.632Z,5.20
2019-03-25T03:11:19.691Z,5.20
2019-03-25T03:13:50.723Z,5.20
2019-03-25T03:16:40.543Z,5.30
2019-03-25T03:23:19.872Z,5.20
2019-03-25T03:26:02.324Z,5.10
2019-03-25T03:28:44.746Z,5.10
2019-03-25T03:34:26.644Z,5.00
2019-03-25T03:37:08.435Z,5.00
2019-03-25T03:39:51.035Z,5.00
2019-03-25T03:42:32.803Z,5.10
2019-03-25T03:45:15.316Z,5.20
2019-03-25T03:47:57.602Z,5.20
2019-03-25T03:50:39.742Z,5.20
2019-03-25T03:53:22.571Z,5.20
2019-03-25T03:56:12.622Z,5.20
2019-03-25T03:58:49.059Z,5.20
2019-03-25T04:01:31.428Z,5.20
2019-03-25T04:04:13.555Z,5.20
2019-03-25T04:06:55.829Z,5.30
2019-03-25T04:09:38.204Z,5.40
2019-03-25T04:15:00.994Z,5.60
2019-03-25T04:17:43.376Z,5.70
2019-03-25T04:20:25.703Z,5.80
2019-03-25T04:23:08.687Z,5.80
2019-03-25T04:28:35.825Z,5.80
2019-03-25T04:31:18.327Z,5.70
2019-03-25T04:34:01.041Z,5.70
2019-03-25T04:36:43.608Z,5.60
2019-03-25T04:39:25.803Z,5.50
2019-03-25T04:42:07.643Z,5.40
2019-03-25T04:44:49.811Z,5.40
2019-03-25T04:47:32.006Z,5.40
2019-03-25T04:50:14.351Z,5.40
2019-03-25T04:52:56.819Z,5.50
2019-03-25T04:59:11.579Z,5.50
2019-03-25T05:01:54.084Z,5.50
2019-03-25T05:07:46.031Z,5.60
2019-03-25T05:10:28.619Z,5.60
2019-03-25T05:13:29.667Z,5.60
2019-03-25T05:19:40.248Z,5.70
2019-03-25T05:22:31.659Z,5.70
2019-03-25T05:25:15.727Z,5.80
2019-03-25T05:27:57.837Z,5.80
2019-03-25T05:33:48.211Z,5.80
2019-03-25T05:36:30.002Z,5.80
2019-03-25T05:42:22.011Z,5.90
2019-03-25T05:45:04.131Z,6.00
2019-03-25T05:47:46.186Z,6.00
2019-03-25T05:50:29.691Z,5.90
2019-03-25T05:53:12.224Z,6.00
2019-03-25T05:55:53.971Z,6.00
2019-03-25T05:58:36.390Z,6.00
2019-03-25T06:04:23.215Z,6.10
2019-03-25T06:09:49.498Z,6.10
2019-03-25T06:15:21.063Z,6.10
2019-03-25T06:21:11.711Z,6.20
2019-03-25T06:23:53.479Z,6.20
2019-03-25T06:32:57.094Z,6.30
2019-03-25T06:38:49.169Z,6.30
2019-03-25T06:41:31.719Z,6.20
2019-03-25T06:44:14.554Z,6.20
2019-03-25T06:47:16.787Z,6.20
2019-03-25T06:49:58.971Z,6.20
2019-03-25T06:52:41.338Z,6.20
2019-03-25T06:58:06.503Z,6.20
2019-03-25T07:04:16.923Z,6.20
2019-03-25T07:06:59.743Z,6.20
2019-03-25T07:09:42.163Z,6.20
2019-03-25T07:15:34.686Z,6.40
2019-03-25T07:18:17.223Z,6.50
2019-03-25T07:20:59.287Z,6.60
2019-03-25T07:23:41.630Z,6.70
2019-03-25T07:26:23.720Z,6.80
2019-03-25T07:29:05.860Z,6.90
2019-03-25T07:31:48.013Z,6.90
2019-03-25T07:34:55.152Z,7.00
2019-03-25T07:37:37.646Z,7.10
2019-03-25T07:40:19.647Z,7.20
2019-03-25T07:42:50.618Z,7.20
2019-03-25T07:49:00.886Z,7.40
2019-03-25T07:51:43.065Z,7.40
2019-03-25T07:54:50.759Z,7.50
2019-03-25T07:57:33.146Z,7.60
2019-03-25T08:00:15.755Z,7.70
2019-03-25T08:06:11.665Z,8.40
2019-03-25T08:09:03.353Z,9.00
2019-03-25T08:11:37.662Z,10.00
2019-03-25T08:14:08.682Z,11.00
2019-03-25T08:20:09.527Z,12.10
2019-03-25T08:22:51.896Z,12.50
2019-03-25T08:25:34.047Z,12.40
2019-03-25T08:28:16.756Z,12.40
2019-03-25T08:31:17.579Z,12.30
2019-03-25T08:34:00.171Z,12.20
2019-03-25T08:36:42.151Z,12.00
2019-03-25T08:42:13.931Z,11.60
2019-03-25T08:44:55.990Z,11.30
2019-03-25T08:47:38.425Z,11.20
2019-03-25T08:50:21.136Z,10.90
2019-03-25T08:52:52.905Z,10.80
2019-03-25T08:58:38.195Z,11.20
2019-03-25T09:01:19.875Z,12.20
2019-03-25T09:04:04.971Z,13.20
2019-03-25T09:06:48.032Z,14.50
2019-03-25T09:09:30.104Z,15.30
2019-03-25T09:12:19.957Z,15.50
2019-03-25T09:18:13.648Z,15.60
2019-03-25T09:20:56.578Z,15.50
2019-03-25T09:23:38.891Z,15.10
2019-03-25T09:26:22.152Z,14.70
2019-03-25T09:31:49.962Z,14.60
2019-03-25T09:34:32.347Z,14.40
2019-03-25T09:37:15.187Z,14.30
2019-03-25T09:40:17.708Z,14.30
2019-03-25T09:43:00.195Z,14.20
2019-03-25T09:45:43.092Z,14.20
2019-03-25T09:48:25.154Z,14.10
2019-03-25T09:51:07.023Z,14.00
2019-03-25T09:53:49.362Z,13.70
2019-03-25T09:56:32.035Z,13.50
2019-03-25T09:59:14.311Z,13.30
2019-03-25T10:01:59.391Z,13.20
2019-03-25T10:04:41.736Z,13.00
2019-03-25T10:07:24.701Z,12.70
2019-03-25T10:10:06.866Z,12.30
2019-03-25T10:13:08.291Z,12.10
2019-03-25T10:18:53.623Z,12.50
2019-03-25T10:24:45.374Z,13.30
2019-03-25T10:27:27.779Z,13.50
2019-03-25T10:33:00.887Z,13.60
2019-03-25T10:35:42.823Z,13.70
2019-03-25T10:38:25.264Z,14.00
2019-03-25T10:41:07.412Z,14.10
2019-03-25T10:43:50.105Z,14.10
2019-03-25T10:46:32.778Z,14.10
2019-03-25T10:49:03.810Z,13.80
2019-03-25T10:57:38.672Z,14.10
2019-03-25T11:00:20.575Z,14.10
2019-03-25T11:03:02.359Z,14.00
2019-03-25T11:05:44.891Z,13.70
2019-03-25T11:08:27.255Z,13.90
2019-03-25T11:11:09.027Z,14.30
2019-03-25T11:13:51.748Z,14.30
2019-03-25T11:16:34.044Z,14.20
2019-03-25T11:19:16.059Z,13.90
2019-03-25T11:25:08.402Z,13.60
2019-03-25T11:27:54.489Z,13.60
2019-03-25T11:30:34.563Z,13.70
2019-03-25T11:33:41.800Z,13.60
2019-03-25T11:39:07.423Z,13.60
2019-03-25T11:41:50.012Z,13.60
2019-03-25T11:44:31.815Z,13.80
2019-03-25T11:47:14.794Z,14.30
2019-03-25T11:49:56.500Z,14.70
2019-03-25T11:52:38.715Z,15.00
2019-03-25T11:55:20.642Z,15.20
2019-03-25T11:58:02.315Z,15.60
2019-03-25T12:03:54.858Z,15.90
2019-03-25T12:06:36.619Z,15.80
2019-03-25T12:09:19.093Z,15.50
2019-03-25T12:12:01.339Z,15.60
2019-03-25T12:14:43.870Z,15.90
2019-03-25T12:17:25.667Z,16.20
2019-03-25T12:20:07.719Z,16.20
2019-03-25T12:22:53.928Z,16.00
2019-03-25T12:25:36.347Z,15.40
2019-03-25T12:28:20.701Z,15.30
2019-03-25T12:31:06.981Z,15.70
2019-03-25T12:33:51.899Z,16.40
2019-03-25T12:36:33.680Z,17.00
2019-03-25T12:39:15.766Z,17.70
2019-03-25T12:41:58.035Z,18.10
2019-03-25T12:44:40.158Z,18.30
2019-03-25T12:47:22.608Z,18.50
2019-03-25T12:50:04.690Z,18.40
2019-03-25T12:52:47.438Z,18.30
2019-03-25T12:55:30.071Z,18.00
2019-03-25T12:58:11.847Z,17.80
2019-03-25T13:00:54.517Z,18.00
2019-03-25T13:03:37.227Z,18.10
2019-03-25T13:06:19.043Z,18.10
2019-03-25T13:09:00.807Z,18.30
2019-03-25T13:11:43.056Z,18.40
2019-03-25T13:14:25.548Z,18.20
2019-03-25T13:17:07.820Z,17.70
2019-03-25T13:19:50.443Z,17.10
2019-03-25T13:22:32.599Z,16.50
2019-03-25T13:25:14.748Z,16.10
2019-03-25T13:27:57.847Z,15.50
2019-03-25T13:30:40.443Z,15.10
2019-03-25T13:33:22.256Z,15.00
2019-03-25T13:36:05.127Z,15.00
2019-03-25T13:38:47.471Z,15.10
2019-03-25T13:41:30.119Z,15.20
2019-03-25T13:44:12.148Z,15.10
2019-03-25T13:46:54.426Z,15.20
2019-03-25T13:49:36.268Z,15.30
2019-03-25T13:52:18.955Z,15.60
2019-03-25T14:03:51.372Z,15.10
2019-03-25T14:06:33.982Z,15.00
2019-03-25T14:09:19.243Z,14.80
2019-03-25T14:11:50.277Z,14.70
2019-03-25T14:14:40.139Z,14.60
2019-03-25T14:20:42.366Z,14.60
2019-03-25T14:23:42.983Z,14.40
2019-03-25T14:32:40.556Z,13.80
2019-03-25T14:35:22.643Z,13.40
2019-03-25T14:37:53.807Z,13.20
2019-03-25T14:44:03.845Z,12.50
2019-03-25T14:46:45.715Z,12.30
2019-03-25T14:49:29.479Z,12.00
2019-03-25T14:52:11.444Z,12.00
2019-03-25T14:54:54.035Z,12.00
2019-03-25T14:57:35.890Z,11.80
2019-03-25T15:00:25.421Z,11.70
2019-03-25T15:02:54.809Z,11.70
2019-03-25T15:08:45.423Z,11.60
2019-03-25T15:11:28.136Z,11.70
2019-03-25T15:14:10.690Z,11.60
2019-03-25T15:16:52.811Z,11.60
2019-03-25T15:25:54.819Z,11.60
2019-03-25T15:28:55.516Z,11.70
2019-03-25T15:31:38.144Z,11.50
2019-03-25T15:34:19.987Z,11.40
2019-03-25T15:36:50.990Z,11.30
2019-03-25T15:43:19.454Z,11.00
2019-03-25T15:46:20.828Z,10.80
2019-03-25T15:48:51.833Z,10.60
2019-03-25T15:55:08.907Z,10.40
2019-03-25T15:57:51.527Z,10.30
2019-03-25T16:00:34.029Z,10.20
2019-03-25T16:03:16.737Z,10.20
2019-03-25T16:05:59.347Z,10.10
2019-03-25T16:08:41.737Z,10.10
2019-03-25T16:11:26.533Z,10.10
2019-03-25T16:17:21.879Z,10.20
2019-03-25T16:19:52.855Z,10.10
2019-03-25T16:25:45.304Z,10.10
2019-03-25T16:28:27.958Z,10.20
2019-03-25T16:31:09.806Z,10.20
2019-03-25T16:33:52.231Z,10.30
2019-03-25T16:39:45.227Z,10.30
2019-03-25T16:45:11.421Z,10.20
2019-03-25T16:47:53.851Z,10.20
2019-03-25T16:51:02.401Z,10.20
2019-03-25T16:56:16.172Z,10.10
2019-03-25T16:58:47.192Z,10.00
2019-03-25T17:01:18.182Z,9.90
2019-03-25T17:03:49.170Z,9.80
2019-03-25T17:06:20.022Z,9.70
2019-03-25T17:08:51.287Z,9.70
2019-03-25T17:11:22.322Z,9.60
2019-03-25T17:13:53.313Z,9.50
2019-03-25T17:16:24.302Z,9.50
2019-03-25T17:21:26.257Z,9.40
2019-03-25T17:24:16.625Z,9.30
2019-03-25T17:26:47.662Z,9.20
2019-03-25T17:35:59.317Z,8.90
2019-03-25T17:38:41.393Z,8.80
2019-03-25T17:45:02.852Z,8.50
2019-03-25T17:47:45.190Z,8.40
2019-03-25T17:50:27.119Z,8.30
2019-03-25T17:53:09.357Z,8.20
2019-03-25T17:55:51.943Z,8.00
2019-03-25T17:58:36.459Z,7.90
2019-03-25T18:01:19.774Z,7.80
2019-03-25T18:04:02.079Z,7.60
2019-03-25T18:06:44.220Z,7.50
2019-03-25T18:09:26.111Z,7.30
2019-03-25T18:12:08.748Z,7.20
2019-03-25T18:21:36.367Z,6.70
2019-03-25T18:24:18.786Z,6.60
2019-03-25T18:27:00.725Z,6.30
2019-03-25T18:30:02.396Z,6.20
2019-03-25T18:32:44.910Z,6.10
2019-03-25T18:35:27.517Z,5.90
2019-03-25T18:38:09.754Z,5.90
2019-03-25T18:43:36.895Z,5.60
2019-03-25T18:46:19.031Z,5.50
2019-03-25T18:49:01.619Z,5.40
2019-03-25T18:51:43.392Z,5.30
2019-03-25T18:54:25.582Z,5.30
2019-03-25T18:57:07.388Z,5.20
2019-03-25T18:59:49.990Z,5.10
2019-03-25T19:05:25.510Z,5.00
2019-03-25T19:08:08.623Z,4.90
2019-03-25T19:14:16.948Z,4.70
2019-03-25T19:16:59.192Z,4.50
2019-03-25T19:23:06.655Z,4.10
2019-03-25T19:25:49.389Z,4.00
2019-03-25T19:28:31.787Z,4.00
2019-03-25T19:37:45.139Z,3.70
2019-03-25T19:40:26.965Z,3.70
2019-03-25T19:42:58.382Z,3.70
2019-03-25T19:45:48.187Z,3.60
2019-03-25T19:51:56.724Z,3.30
2019-03-25T19:54:38.507Z,3.20
2019-03-25T19:57:20.831Z,3.00
2019-03-25T20:00:03.364Z,2.90
2019-03-25T20:02:45.992Z,2.80
2019-03-25T20:05:29.736Z,2.70
2019-03-25T20:08:11.556Z,2.80
2019-03-25T20:10:54.114Z,2.80
2019-03-25T20:13:54.913Z,2.80
2019-03-25T20:16:37.479Z,2.90
2019-03-25T20:22:25.597Z,2.80
2019-03-25T20:25:07.978Z,2.90
2019-03-25T20:27:49.927Z,2.90
2019-03-25T20:30:31.955Z,2.90
2019-03-25T20:33:14.315Z,2.90
2019-03-25T20:35:56.329Z,2.90
2019-03-25T20:38:41.067Z,2.80
2019-03-25T20:41:23.549Z,2.80
2019-03-25T20:44:05.794Z,2.90
2019-03-25T20:46:48.067Z,2.80
2019-03-25T20:49:29.977Z,2.80
2019-03-25T20:52:11.732Z,2.80
2019-03-25T20:54:54.460Z,2.80
2019-03-25T20:57:36.889Z,2.70
2019-03-25T21:00:19.239Z,2.70
2019-03-25T21:03:21.197Z,2.70
2019-03-25T21:12:54.952Z,2.50
2019-03-25T21:15:37.593Z,2.40
2019-03-25T21:18:20.000Z,2.40
2019-03-25T21:21:03.849Z,2.40
2019-03-25T21:27:29.427Z,2.30
2019-03-25T21:30:11.882Z,2.30
2019-03-25T21:35:37.446Z,2.30
2019-03-25T21:41:45.843Z,2.20
2019-03-25T21:47:54.431Z,2.10
2019-03-25T21:50:55.840Z,2.10
2019-03-25T21:53:40.026Z,2.10
2019-03-25T21:56:22.228Z,2.00
2019-03-25T21:59:06.305Z,1.90
2019-03-25T22:02:07.622Z,1.90
2019-03-25T22:07:53.527Z,1.90
2019-03-25T22:13:25.707Z,1.90
2019-03-25T22:16:26.506Z,1.80
2019-03-25T22:18:57.480Z,1.80
2019-03-25T22:21:47.215Z,1.80
2019-03-25T22:30:46.927Z,1.70
2019-03-25T22:33:28.764Z,1.70
2019-03-25T22:39:55.472Z,1.70
2019-03-25T22:42:38.046Z,1.80
2019-03-25T22:48:45.418Z,1.70
2019-03-25T22:51:46.533Z,1.70
2019-03-25T22:54:48.860Z,1.60
2019-03-25T22:57:31.507Z,1.60
2019-03-25T23:00:32.587Z,1.60
2019-03-25T23:03:15.927Z,1.50
2019-03-25T23:05:58.167Z,1.50
2019-03-25T23:08:29.228Z,1.40
2019-03-25T23:11:00.250Z,1.40
2019-03-25T23:13:31.263Z,1.30
2019-03-25T23:16:02.479Z,1.20
2019-03-25T23:18:36.724Z,1.10
2019-03-25T23:21:07.758Z,1.00
2019-03-25T23:23:38.823Z,0.90
2019-03-25T23:26:09.843Z,0.90
2019-03-25T23:28:40.882Z,1.00
2019-03-25T23:31:11.910Z,1.00
2019-03-25T23:33:52.194Z,1.10
2019-03-25T23:36:15.836Z,1.20
2019-03-25T23:38:46.801Z,1.20
2019-03-25T23:41:18.022Z,1.20
2019-03-25T23:43:49.091Z,1.10
2019-03-25T23:46:20.091Z,1.10
2019-03-25T23:48:51.122Z,1.10
2019-03-25T23:51:22.122Z,1.20
2019-03-25T23:53:54.728Z,1.30
2019-03-25T23:56:25.743Z,1.40
2019-03-25T23:58:56.808Z,1.40
